createdAt,value
2018-06-11T00:03:56.079Z,24.51
2018-06-11T00:07:59.505Z,24.49
2018-06-11T00:12:02.948Z,24.41
2018-06-11T00:16:06.413Z,24.37
2018-06-11T00:20:09.943Z,24.32
2018-06-11T00:24:13.403Z,24.22
2018-06-11T00:28:16.845Z,24.15
2018-06-11T00:32:20.438Z,24.13
2018-06-11T00:36:23.820Z,24.10
2018-06-11T00:40:27.310Z,24.06
2018-06-11T00:44:30.746Z,24.03
2018-06-11T00:48:34.178Z,23.99
2018-06-11T00:52:37.654Z,23.92
2018-06-11T00:56:41.085Z,23.91
2018-06-11T01:00:44.537Z,23.87
2018-06-11T01:04:48.023Z,23.86
2018-06-11T01:08:51.446Z,23.82
2018-06-11T01:12:54.904Z,23.79
2018-06-11T01:16:58.354Z,23.78
2018-06-11T01:21:01.783Z,23.79
2018-06-11T01:25:05.285Z,23.77
2018-06-11T01:29:08.742Z,23.76
2018-06-11T01:33:12.199Z,23.74
2018-06-11T01:37:15.654Z,23.72
2018-06-11T01:41:19.094Z,23.69
2018-06-11T01:45:22.537Z,23.67
2018-06-11T01:49:26.014Z,23.61
2018-06-11T01:53:29.459Z,23.58
2018-06-11T01:57:34.001Z,23.57
2018-06-11T02:01:37.462Z,23.53
2018-06-11T02:05:40.974Z,23.50
2018-06-11T02:09:44.478Z,23.45
2018-06-11T02:13:47.915Z,23.41
2018-06-11T02:17:51.381Z,23.38
2018-06-11T02:21:54.862Z,23.37
2018-06-11T02:25:58.307Z,23.32
2018-06-11T02:30:01.735Z,23.28
2018-06-11T02:34:05.184Z,23.24
2018-06-11T02:38:08.660Z,23.21
2018-06-11T02:42:12.132Z,23.21
2018-06-11T02:46:15.592Z,23.22
2018-06-11T02:50:19.002Z,23.21
2018-06-11T02:54:22.489Z,23.17
2018-06-11T02:58:25.972Z,23.13
2018-06-11T03:02:29.409Z,23.12
2018-06-11T03:06:32.915Z,23.07
2018-06-11T03:10:36.346Z,23.05
2018-06-11T03:14:39.956Z,23.04
2018-06-11T03:18:43.431Z,22.99
2018-06-11T03:22:46.914Z,22.99
2018-06-11T03:26:50.375Z,23.00
2018-06-11T03:30:53.864Z,22.99
2018-06-11T03:34:57.322Z,22.95
2018-06-11T03:39:00.794Z,22.93
2018-06-11T03:43:04.383Z,22.91
2018-06-11T03:47:07.802Z,22.91
2018-06-11T03:51:12.196Z,22.92
2018-06-11T03:55:15.608Z,22.92
2018-06-11T03:59:19.069Z,22.93
2018-06-11T04:03:22.519Z,22.95
2018-06-11T04:07:26.011Z,22.98
2018-06-11T04:11:29.464Z,23.02
2018-06-11T04:15:32.969Z,23.00
2018-06-11T04:19:36.420Z,23.04
2018-06-11T04:23:39.867Z,23.07
2018-06-11T04:27:43.431Z,23.10
2018-06-11T04:31:46.861Z,23.12
2018-06-11T04:35:50.309Z,23.15
2018-06-11T04:39:53.768Z,23.21
2018-06-11T04:43:57.197Z,23.26
2018-06-11T04:48:00.676Z,23.36
2018-06-11T04:52:04.115Z,23.45
2018-06-11T04:56:07.603Z,23.54
2018-06-11T05:00:11.040Z,23.65
2018-06-11T05:04:14.482Z,23.78
2018-06-11T05:08:17.953Z,23.93
2018-06-11T05:12:21.384Z,24.08
2018-06-11T05:16:24.846Z,24.23
2018-06-11T05:20:28.316Z,24.39
2018-06-11T05:24:31.736Z,24.60
2018-06-11T05:28:41.509Z,24.82
2018-06-11T05:32:44.895Z,25.09
2018-06-11T05:36:48.332Z,25.39
2018-06-11T05:40:51.738Z,25.66
2018-06-11T05:44:55.171Z,25.89
2018-06-11T05:48:58.603Z,26.14
2018-06-11T05:53:02.075Z,26.32
2018-06-11T05:57:05.785Z,26.51
2018-06-11T06:01:09.255Z,26.75
2018-06-11T06:05:12.709Z,26.94
2018-06-11T06:09:16.152Z,27.10
2018-06-11T06:13:19.598Z,27.23
2018-06-11T06:17:23.051Z,27.37
2018-06-11T06:21:26.478Z,27.53
2018-06-11T06:25:29.904Z,27.70
2018-06-11T06:29:33.314Z,27.78
2018-06-11T06:33:36.758Z,27.93
2018-06-11T06:37:40.226Z,28.07
2018-06-11T06:41:43.681Z,28.27
2018-06-11T06:45:47.081Z,28.45
2018-06-11T06:49:50.514Z,28.59
2018-06-11T06:53:53.998Z,28.61
2018-06-11T06:57:57.505Z,28.60
2018-06-11T07:02:00.917Z,28.65
2018-06-11T07:06:04.368Z,28.78
2018-06-11T07:10:07.931Z,28.88
2018-06-11T07:14:11.374Z,28.95
2018-06-11T07:18:14.805Z,28.98
2018-06-11T07:22:18.257Z,29.01
2018-06-11T07:26:21.685Z,29.06
2018-06-11T07:30:25.127Z,29.08
2018-06-11T07:34:28.531Z,29.22
2018-06-11T07:38:31.980Z,29.43
2018-06-11T07:42:35.391Z,29.60
2018-06-11T07:46:38.831Z,29.68
2018-06-11T07:50:42.296Z,29.68
2018-06-11T07:54:45.742Z,29.66
2018-06-11T07:58:49.231Z,29.68
2018-06-11T08:02:52.707Z,29.74
2018-06-11T08:06:56.194Z,29.80
2018-06-11T08:10:59.643Z,29.97
2018-06-11T08:15:03.061Z,30.04
2018-06-11T08:19:06.559Z,30.18
2018-06-11T08:23:10.021Z,30.29
2018-06-11T08:27:13.483Z,30.39
2018-06-11T08:31:16.939Z,30.47
2018-06-11T08:35:20.402Z,30.61
2018-06-11T08:39:23.867Z,30.68
2018-06-11T08:43:27.316Z,30.69
2018-06-11T08:47:30.775Z,30.65
2018-06-11T08:51:34.199Z,30.71
2018-06-11T08:55:37.655Z,30.57
2018-06-11T08:59:41.085Z,30.68
2018-06-11T09:03:44.522Z,30.81
2018-06-11T09:07:47.997Z,30.93
2018-06-11T09:11:51.404Z,31.01
2018-06-11T09:15:54.854Z,31.16
2018-06-11T09:19:58.267Z,31.30
2018-06-11T09:24:01.786Z,31.42
2018-06-11T09:28:05.179Z,31.57
2018-06-11T09:32:08.632Z,31.67
2018-06-11T09:36:12.455Z,31.75
2018-06-11T09:40:15.931Z,31.85
2018-06-11T09:44:19.384Z,31.91
2018-06-11T09:48:22.836Z,31.93
2018-06-11T09:52:26.283Z,31.89
2018-06-11T09:56:29.739Z,31.82
2018-06-11T10:00:36.187Z,31.95
2018-06-11T10:04:39.647Z,32.09
2018-06-11T10:08:43.118Z,32.11
2018-06-11T10:12:46.569Z,31.99
2018-06-11T10:16:50.002Z,32.04
2018-06-11T10:20:53.480Z,32.04
2018-06-11T10:24:56.921Z,32.11
2018-06-11T10:29:00.418Z,32.13
2018-06-11T10:33:03.847Z,32.25
2018-06-11T10:37:07.278Z,32.41
2018-06-11T10:41:10.709Z,32.57
2018-06-11T10:45:14.145Z,32.61
2018-06-11T10:49:17.595Z,32.47
2018-06-11T10:53:21.029Z,32.52
2018-06-11T10:57:24.466Z,32.62
2018-06-11T11:01:27.902Z,32.82
2018-06-11T11:05:31.350Z,32.93
2018-06-11T11:09:34.797Z,32.88
2018-06-11T11:13:38.233Z,32.88
2018-06-11T11:17:41.660Z,32.92
2018-06-11T11:21:45.110Z,33.03
2018-06-11T11:25:48.618Z,33.12
2018-06-11T11:29:52.032Z,33.23
2018-06-11T11:33:55.467Z,33.36
2018-06-11T11:37:58.893Z,33.48
2018-06-11T11:42:02.326Z,33.55
2018-06-11T11:46:05.834Z,33.58
2018-06-11T11:50:09.368Z,33.55
2018-06-11T11:54:12.880Z,33.62
2018-06-11T11:58:16.302Z,33.57
2018-06-11T12:02:19.722Z,33.50
2018-06-11T12:06:23.202Z,33.41
2018-06-11T12:10:26.664Z,33.33
2018-06-11T12:14:30.112Z,33.29
2018-06-11T12:18:33.535Z,33.24
2018-06-11T12:22:36.934Z,33.14
2018-06-11T12:26:40.382Z,32.93
2018-06-11T12:30:43.827Z,32.81
2018-06-11T12:34:47.230Z,32.65
2018-06-11T12:38:50.688Z,32.70
2018-06-11T12:42:54.167Z,32.80
2018-06-11T12:46:57.616Z,32.84
2018-06-11T12:51:01.010Z,32.93
2018-06-11T12:55:04.485Z,33.02
2018-06-11T12:59:07.946Z,33.00
2018-06-11T13:03:11.385Z,32.92
2018-06-11T13:07:14.822Z,32.91
2018-06-11T13:11:18.231Z,32.94
2018-06-11T13:15:21.705Z,33.03
2018-06-11T13:19:25.129Z,33.01
2018-06-11T13:23:28.592Z,33.01
2018-06-11T13:27:32.056Z,32.92
2018-06-11T13:31:35.484Z,32.80
2018-06-11T13:35:38.967Z,32.74
2018-06-11T13:39:42.425Z,32.69
2018-06-11T13:43:46.674Z,32.65
2018-06-11T13:47:50.147Z,32.63
2018-06-11T13:51:53.594Z,32.60
2018-06-11T13:55:57.067Z,32.56
2018-06-11T14:00:00.500Z,32.50
2018-06-11T14:04:03.991Z,32.41
2018-06-11T14:08:07.512Z,32.37
2018-06-11T14:12:10.974Z,32.37
2018-06-11T14:16:14.498Z,32.43
2018-06-11T14:20:17.946Z,32.53
2018-06-11T14:24:21.363Z,32.56
2018-06-11T14:28:24.783Z,32.60
2018-06-11T14:32:28.233Z,32.62
2018-06-11T14:36:31.679Z,32.67
2018-06-11T14:40:35.111Z,32.63
2018-06-11T14:44:38.552Z,32.64
2018-06-11T14:48:42.021Z,32.62
2018-06-11T14:52:45.502Z,32.62
2018-06-11T14:56:48.951Z,32.59
2018-06-11T15:00:52.396Z,32.58
2018-06-11T15:04:55.869Z,32.54
2018-06-11T15:08:59.290Z,32.53
2018-06-11T15:13:02.798Z,32.46
2018-06-11T15:17:06.261Z,32.45
2018-06-11T15:21:09.687Z,32.40
2018-06-11T15:25:13.131Z,32.39
2018-06-11T15:29:16.597Z,32.36
2018-06-11T15:33:20.004Z,32.32
2018-06-11T15:37:23.493Z,32.32
2018-06-11T15:41:26.932Z,32.32
2018-06-11T15:45:30.407Z,32.31
2018-06-11T15:49:33.895Z,32.26
2018-06-11T15:53:37.366Z,32.21
2018-06-11T15:57:40.832Z,32.15
2018-06-11T16:01:44.228Z,32.08
2018-06-11T16:05:47.671Z,32.03
2018-06-11T16:09:51.155Z,31.96
2018-06-11T16:13:54.624Z,31.98
2018-06-11T16:17:58.101Z,32.02
2018-06-11T16:22:01.552Z,31.96
2018-06-11T16:26:05.012Z,31.88
2018-06-11T16:30:08.475Z,31.82
2018-06-11T16:34:11.910Z,31.78
2018-06-11T16:38:15.386Z,31.75
2018-06-11T16:42:18.820Z,31.72
2018-06-11T16:46:22.320Z,31.66
2018-06-11T16:50:25.790Z,31.64
2018-06-11T16:54:29.236Z,31.59
2018-06-11T16:58:32.745Z,31.57
2018-06-11T17:02:36.162Z,31.55
2018-06-11T17:06:39.606Z,31.53
2018-06-11T17:10:43.201Z,31.51
2018-06-11T17:14:47.851Z,31.44
2018-06-11T17:18:51.334Z,31.37
2018-06-11T17:22:54.779Z,31.29
2018-06-11T17:26:58.271Z,31.23
2018-06-11T17:31:01.721Z,31.19
2018-06-11T17:35:05.129Z,31.15
2018-06-11T17:39:08.666Z,31.09
2018-06-11T17:43:12.102Z,31.01
2018-06-11T17:47:15.553Z,30.98
2018-06-11T17:51:19.019Z,30.97
2018-06-11T17:55:22.486Z,30.93
2018-06-11T17:59:25.940Z,30.84
2018-06-11T18:03:29.407Z,30.79
2018-06-11T18:07:32.898Z,30.74
2018-06-11T18:11:36.679Z,30.65
2018-06-11T18:15:40.134Z,30.58
2018-06-11T18:19:43.563Z,30.52
2018-06-11T18:23:47.030Z,30.45
2018-06-11T18:27:50.537Z,30.34
2018-06-11T18:31:53.962Z,30.27
2018-06-11T18:35:57.447Z,30.17
2018-06-11T18:40:00.830Z,30.11
2018-06-11T18:44:04.475Z,30.02
2018-06-11T18:48:07.939Z,29.97
2018-06-11T18:52:11.360Z,29.84
2018-06-11T18:56:14.794Z,29.77
2018-06-11T19:00:18.221Z,29.73
2018-06-11T19:04:21.628Z,29.63
2018-06-11T19:08:25.108Z,29.53
2018-06-11T19:12:28.570Z,29.40
2018-06-11T19:16:32.011Z,29.31
2018-06-11T19:20:35.457Z,29.24
2018-06-11T19:24:38.891Z,29.20
2018-06-11T19:28:42.337Z,29.10
2018-06-11T19:32:45.792Z,29.02
2018-06-11T19:36:49.232Z,28.93
2018-06-11T19:40:52.719Z,28.91
2018-06-11T19:44:56.099Z,28.83
2018-06-11T19:48:59.540Z,28.77
2018-06-11T19:53:03.015Z,28.70
2018-06-11T19:57:06.439Z,28.63
2018-06-11T20:01:09.896Z,28.59
2018-06-11T20:05:13.409Z,28.52
2018-06-11T20:09:16.844Z,28.45
2018-06-11T20:13:20.308Z,28.38
2018-06-11T20:17:23.766Z,28.33
2018-06-11T20:21:27.211Z,28.28
2018-06-11T20:25:30.635Z,28.22
2018-06-11T20:29:34.088Z,28.17
2018-06-11T20:33:37.513Z,28.08
2018-06-11T20:37:40.991Z,28.01
2018-06-11T20:41:44.448Z,27.94
2018-06-11T20:45:47.896Z,27.89
2018-06-11T20:49:51.348Z,27.84
2018-06-11T20:53:54.787Z,27.77
2018-06-11T20:57:58.279Z,27.73
2018-06-11T21:02:01.752Z,27.65
2018-06-11T21:06:05.186Z,27.60
2018-06-11T21:10:08.745Z,27.58
2018-06-11T21:14:12.152Z,27.53
2018-06-11T21:18:15.595Z,27.51
2018-06-11T21:22:19.067Z,27.46
2018-06-11T21:26:22.493Z,27.38
2018-06-11T21:30:25.963Z,27.34
2018-06-11T21:34:29.410Z,27.28
2018-06-11T21:38:32.846Z,27.25
2018-06-11T21:42:36.289Z,27.23
2018-06-11T21:46:39.717Z,27.19
2018-06-11T21:50:43.194Z,27.15
2018-06-11T21:54:46.646Z,27.14
2018-06-11T21:58:50.101Z,27.11
2018-06-11T22:02:53.568Z,27.10
2018-06-11T22:06:56.999Z,27.06
2018-06-11T22:11:00.499Z,27.02
2018-06-11T22:15:03.948Z,27.03
2018-06-11T22:19:07.407Z,27.00
2018-06-11T22:23:10.846Z,27.00
2018-06-11T22:27:14.286Z,26.98
2018-06-11T22:31:17.837Z,26.98
2018-06-11T22:35:21.246Z,26.94
2018-06-11T22:39:24.702Z,26.92
2018-06-11T22:43:28.167Z,26.90
2018-06-11T22:47:31.604Z,26.86
2018-06-11T22:51:35.100Z,26.82
2018-06-11T22:55:38.577Z,26.81
2018-06-11T22:59:42.019Z,26.79
2018-06-11T23:03:45.436Z,26.77
2018-06-11T23:07:48.869Z,26.74
2018-06-11T23:11:52.329Z,26.73
2018-06-11T23:15:55.758Z,26.70
2018-06-11T23:19:59.194Z,26.68
2018-06-11T23:24:02.688Z,26.64
2018-06-11T23:28:06.075Z,26.61
2018-06-11T23:32:09.474Z,26.57
2018-06-11T23:36:12.949Z,26.52
2018-06-11T23:40:16.397Z,26.51
2018-06-11T23:44:19.854Z,26.51
2018-06-11T23:48:23.259Z,26.44
2018-06-11T23:52:26.712Z,26.35
2018-06-11T23:56:30.132Z,26.27
